createdAt,value
2022-10-10T00:01:21.081Z,99.90
2022-10-10T00:03:49.174Z,99.90
2022-10-10T00:06:17.880Z,99.90
2022-10-10T00:08:46.160Z,99.90
2022-10-10T00:11:15.945Z,99.90
2022-10-10T00:13:45.846Z,99.90
2022-10-10T00:16:15.022Z,99.90
2022-10-10T00:18:43.851Z,99.90
2022-10-10T00:21:12.785Z,99.90
2022-10-10T00:23:40.964Z,99.90
2022-10-10T00:26:10.118Z,99.90
2022-10-10T00:28:39.402Z,99.90
2022-10-10T00:31:10.702Z,99.90
2022-10-10T00:33:39.342Z,99.90
2022-10-10T00:36:08.176Z,99.90
2022-10-10T00:38:36.635Z,99.90
2022-10-10T00:41:05.129Z,99.90
2022-10-10T00:43:33.935Z,99.90
2022-10-10T00:46:02.636Z,99.90
2022-10-10T00:48:35.420Z,99.90
2022-10-10T00:51:09.487Z,99.90
2022-10-10T00:53:46.283Z,99.90
2022-10-10T00:56:19.526Z,99.90
2022-10-10T00:58:52.181Z,99.90
2022-10-10T01:01:24.013Z,99.90
2022-10-10T01:03:58.046Z,99.90
2022-10-10T01:06:26.393Z,99.90
2022-10-10T01:08:56.038Z,99.90
2022-10-10T01:11:46.953Z,99.90
2022-10-10T01:14:26.687Z,99.90
2022-10-10T01:17:03.645Z,99.90
2022-10-10T01:20:09.044Z,99.90
2022-10-10T01:22:49.091Z,99.90
2022-10-10T01:25:25.991Z,99.90
2022-10-10T01:28:00.436Z,99.90
2022-10-10T01:30:31.795Z,99.90
2022-10-10T01:33:08.227Z,99.90
2022-10-10T01:35:46.500Z,99.90
2022-10-10T01:38:25.766Z,99.90
2022-10-10T01:41:02.248Z,99.90
2022-10-10T01:43:31.779Z,99.90
2022-10-10T01:46:11.491Z,99.90
2022-10-10T01:48:40.618Z,99.90
2022-10-10T01:51:24.511Z,99.90
2022-10-10T01:54:01.159Z,99.90
2022-10-10T01:56:45.636Z,99.90
2022-10-10T01:59:30.900Z,99.90
2022-10-10T02:02:09.770Z,99.90
2022-10-10T02:04:43.434Z,99.90
2022-10-10T02:07:16.792Z,99.90
2022-10-10T02:09:48.061Z,99.90
2022-10-10T02:12:19.551Z,99.90
2022-10-10T02:14:52.601Z,99.90
2022-10-10T02:17:27.737Z,99.90
2022-10-10T02:20:00.533Z,99.90
2022-10-10T02:22:30.519Z,99.90
2022-10-10T02:25:02.170Z,99.90
2022-10-10T02:27:40.735Z,99.90
2022-10-10T02:30:10.875Z,99.90
2022-10-10T02:32:45.151Z,99.90
2022-10-10T02:35:18.182Z,99.90
2022-10-10T02:37:48.548Z,99.90
2022-10-10T02:40:24.307Z,99.90
2022-10-10T02:42:54.312Z,99.90
2022-10-10T02:45:25.912Z,99.90
2022-10-10T02:47:55.944Z,99.90
2022-10-10T02:50:27.633Z,99.90
2022-10-10T02:52:56.297Z,99.90
2022-10-10T02:55:24.897Z,99.90
2022-10-10T02:57:53.390Z,99.90
2022-10-10T03:00:22.034Z,99.90
2022-10-10T03:02:51.123Z,99.90
2022-10-10T03:08:11.778Z,99.90
2022-10-10T03:10:40.164Z,99.90
2022-10-10T03:13:08.445Z,99.90
2022-10-10T03:15:36.502Z,99.90
2022-10-10T03:18:04.791Z,99.90
2022-10-10T03:20:34.127Z,99.90
2022-10-10T03:23:02.100Z,99.90
2022-10-10T03:25:30.105Z,99.90
2022-10-10T03:27:58.144Z,99.90
2022-10-10T03:30:26.094Z,99.90
2022-10-10T03:32:54.265Z,99.90
2022-10-10T03:35:22.354Z,99.90
2022-10-10T03:37:51.687Z,99.90
2022-10-10T03:40:19.772Z,99.90
2022-10-10T03:42:50.066Z,99.90
2022-10-10T03:45:18.385Z,99.90
2022-10-10T03:47:46.390Z,99.90
2022-10-10T03:50:14.490Z,99.90
2022-10-10T03:52:42.455Z,99.90
2022-10-10T03:55:12.188Z,99.90
2022-10-10T03:57:40.213Z,99.90
2022-10-10T04:00:09.524Z,99.90
2022-10-10T04:02:37.610Z,99.90
2022-10-10T04:05:06.637Z,99.90
2022-10-10T04:07:34.876Z,99.90
2022-10-10T04:10:02.904Z,99.90
2022-10-10T04:12:32.308Z,99.90
2022-10-10T04:15:00.409Z,99.90
2022-10-10T04:17:28.418Z,99.90
2022-10-10T04:19:56.511Z,99.90
2022-10-10T04:22:24.609Z,99.90
2022-10-10T04:24:52.639Z,99.90
2022-10-10T04:27:20.597Z,99.90
2022-10-10T04:29:51.105Z,99.90
2022-10-10T04:32:19.128Z,99.90
2022-10-10T04:34:47.138Z,99.90
2022-10-10T04:37:15.267Z,99.90
2022-10-10T04:39:47.211Z,99.90
2022-10-10T04:42:16.145Z,99.90
2022-10-10T04:44:44.126Z,99.90
2022-10-10T04:47:13.735Z,99.90
2022-10-10T04:49:42.506Z,99.90
2022-10-10T04:52:10.550Z,99.90
2022-10-10T04:54:38.647Z,99.90
2022-10-10T04:57:06.679Z,99.90
2022-10-10T04:59:37.831Z,99.90
2022-10-10T05:02:06.120Z,99.90
2022-10-10T05:04:35.534Z,99.90
2022-10-10T05:07:03.627Z,99.90
2022-10-10T05:09:33.736Z,99.90
2022-10-10T05:12:01.954Z,99.90
2022-10-10T05:14:30.085Z,99.90
2022-10-10T05:16:58.188Z,99.90
2022-10-10T05:19:26.654Z,99.90
2022-10-10T05:21:56.023Z,99.90
2022-10-10T05:24:24.978Z,99.90
2022-10-10T05:26:55.277Z,99.90
2022-10-10T05:29:25.578Z,99.90
2022-10-10T05:31:54.682Z,99.90
2022-10-10T05:34:24.077Z,99.90
2022-10-10T05:36:52.540Z,99.90
2022-10-10T05:39:22.345Z,99.90
2022-10-10T05:41:50.504Z,99.90
2022-10-10T05:44:18.591Z,99.90
2022-10-10T05:46:46.729Z,99.90
2022-10-10T05:49:16.191Z,99.90
2022-10-10T05:51:44.235Z,99.90
2022-10-10T05:54:12.750Z,99.90
2022-10-10T05:56:43.918Z,99.90
2022-10-10T05:59:12.453Z,99.90
2022-10-10T06:01:40.776Z,99.90
2022-10-10T06:04:08.785Z,99.90
2022-10-10T06:06:36.939Z,99.90
2022-10-10T06:09:05.392Z,99.90
2022-10-10T06:11:33.573Z,99.90
2022-10-10T06:14:03.604Z,99.90
2022-10-10T06:16:32.022Z,99.90
2022-10-10T06:19:00.826Z,99.90
2022-10-10T06:21:29.025Z,99.90
2022-10-10T06:23:57.278Z,99.90
2022-10-10T06:26:25.415Z,99.90
2022-10-10T06:31:30.996Z,99.90
2022-10-10T06:33:59.306Z,99.90
2022-10-10T06:36:27.553Z,99.90
2022-10-10T06:38:56.412Z,99.90
2022-10-10T06:41:24.872Z,99.90
2022-10-10T06:43:52.906Z,99.90
2022-10-10T06:46:20.894Z,99.90
2022-10-10T06:48:50.474Z,99.90
2022-10-10T06:51:19.160Z,99.90
2022-10-10T06:53:47.504Z,99.90
2022-10-10T06:56:26.385Z,99.90
2022-10-10T06:58:55.524Z,99.90
2022-10-10T07:01:25.350Z,99.90
2022-10-10T07:03:54.877Z,99.90
2022-10-10T07:06:23.340Z,99.90
2022-10-10T07:08:51.551Z,99.90
2022-10-10T07:11:19.777Z,99.90
2022-10-10T07:13:49.398Z,99.90
2022-10-10T07:16:17.401Z,99.90
2022-10-10T07:18:45.899Z,99.90
2022-10-10T07:21:15.414Z,99.90
2022-10-10T07:23:43.409Z,99.90
2022-10-10T07:26:21.006Z,99.90
2022-10-10T07:28:49.353Z,99.90
2022-10-10T07:31:17.609Z,99.90
2022-10-10T07:33:50.115Z,99.90
2022-10-10T07:36:20.735Z,99.90
2022-10-10T07:38:53.011Z,99.90
2022-10-10T07:41:21.432Z,99.90
2022-10-10T07:43:49.500Z,99.90
2022-10-10T07:46:19.961Z,99.90
2022-10-10T07:48:48.872Z,99.90
2022-10-10T07:51:17.234Z,99.90
2022-10-10T07:53:46.636Z,99.90
2022-10-10T07:56:14.663Z,99.90
2022-10-10T07:58:42.642Z,99.90
2022-10-10T08:01:13.038Z,99.90
2022-10-10T08:03:41.404Z,99.90
2022-10-10T08:06:11.628Z,99.70
2022-10-10T08:08:50.011Z,99.10
2022-10-10T08:11:21.458Z,97.80
2022-10-10T08:13:50.007Z,97.20
2022-10-10T08:16:18.271Z,97.70
2022-10-10T08:18:46.219Z,99.00
2022-10-10T08:21:15.595Z,99.30
2022-10-10T08:23:43.758Z,97.50
2022-10-10T08:26:13.671Z,95.90
2022-10-10T08:28:43.488Z,95.00
2022-10-10T08:31:13.822Z,92.40
2022-10-10T08:33:42.936Z,90.20
2022-10-10T08:36:13.613Z,86.70
2022-10-10T08:38:41.557Z,82.80
2022-10-10T08:41:12.753Z,80.40
2022-10-10T08:43:48.756Z,77.80
2022-10-10T08:46:23.035Z,73.60
2022-10-10T08:48:52.548Z,70.90
2022-10-10T08:51:27.594Z,69.40
2022-10-10T08:54:00.208Z,67.10
2022-10-10T08:56:32.172Z,64.90
2022-10-10T08:59:06.138Z,65.10
2022-10-10T09:01:36.566Z,68.10
2022-10-10T09:04:24.585Z,71.70
2022-10-10T09:07:07.362Z,75.30
2022-10-10T09:09:41.873Z,77.40
2022-10-10T09:12:26.621Z,77.60
2022-10-10T09:15:05.233Z,79.10
2022-10-10T09:17:40.542Z,81.50
2022-10-10T09:20:23.210Z,83.80
2022-10-10T09:22:56.716Z,81.80
2022-10-10T09:25:28.225Z,79.70
2022-10-10T09:28:03.079Z,80.90
2022-10-10T09:30:36.500Z,80.00
2022-10-10T09:33:12.644Z,81.10
2022-10-10T09:35:42.662Z,82.70
2022-10-10T09:38:23.736Z,81.70
2022-10-10T09:40:56.559Z,77.90
2022-10-10T09:43:28.784Z,76.30
2022-10-10T09:45:58.428Z,74.30
2022-10-10T09:48:30.578Z,72.80
2022-10-10T09:50:59.589Z,70.50
2022-10-10T09:53:27.974Z,71.50
2022-10-10T09:55:56.681Z,74.80
2022-10-10T09:58:32.824Z,77.40
2022-10-10T10:01:20.937Z,80.60
2022-10-10T10:04:29.678Z,83.00
2022-10-10T10:07:07.192Z,84.40
2022-10-10T10:09:36.053Z,85.70
2022-10-10T10:12:07.637Z,84.70
2022-10-10T10:14:44.176Z,81.70
2022-10-10T10:17:17.342Z,79.80
2022-10-10T10:19:47.273Z,77.80
2022-10-10T10:22:27.023Z,76.40
2022-10-10T10:24:55.838Z,75.90
2022-10-10T10:27:25.870Z,75.10
2022-10-10T10:29:55.354Z,74.90
2022-10-10T10:32:45.956Z,75.30
2022-10-10T10:35:25.523Z,76.60
2022-10-10T10:38:08.457Z,77.20
2022-10-10T10:40:41.882Z,78.60
2022-10-10T10:43:39.597Z,80.00
2022-10-10T10:46:17.888Z,79.90
2022-10-10T10:48:49.594Z,78.80
2022-10-10T10:51:36.173Z,77.90
2022-10-10T10:54:18.906Z,77.50
2022-10-10T10:56:53.035Z,76.40
2022-10-10T11:00:26.474Z,77.00
2022-10-10T11:02:56.001Z,78.40
2022-10-10T11:05:41.821Z,81.80
2022-10-10T11:08:40.669Z,85.30
2022-10-10T11:11:23.561Z,87.80
2022-10-10T11:13:59.649Z,90.20
2022-10-10T11:16:47.857Z,90.90
2022-10-10T11:19:25.519Z,91.90
2022-10-10T11:22:01.688Z,92.00
2022-10-10T11:24:42.914Z,92.10
2022-10-10T11:27:17.247Z,92.40
2022-10-10T11:29:56.583Z,92.70
2022-10-10T11:32:30.670Z,93.00
2022-10-10T11:35:19.103Z,92.80
2022-10-10T11:37:53.375Z,92.90
2022-10-10T11:40:40.889Z,93.20
2022-10-10T11:43:16.569Z,93.60
2022-10-10T11:45:51.090Z,93.80
2022-10-10T11:48:29.546Z,94.00
2022-10-10T11:51:04.086Z,94.10
2022-10-10T11:53:37.399Z,94.50
2022-10-10T11:56:15.567Z,94.80
2022-10-10T11:58:45.776Z,95.10
2022-10-10T12:01:19.170Z,95.60
2022-10-10T12:03:47.263Z,96.20
2022-10-10T12:06:22.517Z,96.60
2022-10-10T12:09:00.190Z,97.00
2022-10-10T12:11:33.590Z,97.20
2022-10-10T12:14:03.441Z,97.30
2022-10-10T12:16:35.863Z,98.00
2022-10-10T12:19:07.217Z,98.70
2022-10-10T12:21:54.388Z,99.00
2022-10-10T12:24:25.252Z,98.70
2022-10-10T12:27:32.159Z,98.80
2022-10-10T12:30:28.316Z,98.80
2022-10-10T12:32:57.516Z,98.10
2022-10-10T12:35:42.528Z,97.80
2022-10-10T12:38:18.567Z,98.10
2022-10-10T12:41:14.790Z,98.50
2022-10-10T12:43:49.220Z,99.10
2022-10-10T12:46:27.755Z,99.80
2022-10-10T12:49:16.648Z,99.90
2022-10-10T12:51:52.818Z,99.90
2022-10-10T12:54:25.734Z,99.90
2022-10-10T12:57:20.091Z,99.90
2022-10-10T12:59:48.575Z,99.90
2022-10-10T13:02:22.429Z,99.90
2022-10-10T13:04:53.511Z,99.90
2022-10-10T13:07:23.300Z,99.90
2022-10-10T13:09:53.295Z,99.90
2022-10-10T13:12:28.249Z,99.90
2022-10-10T13:14:56.982Z,99.90
2022-10-10T13:17:28.256Z,99.90
2022-10-10T13:19:58.216Z,99.90
2022-10-10T13:22:27.298Z,99.90
2022-10-10T13:24:55.488Z,99.90
2022-10-10T13:27:28.426Z,99.90
2022-10-10T13:29:57.163Z,99.90
2022-10-10T13:32:27.438Z,99.90
2022-10-10T13:34:58.627Z,99.90
2022-10-10T13:37:27.546Z,99.90
2022-10-10T13:39:56.360Z,99.90
2022-10-10T13:42:32.391Z,99.90
2022-10-10T13:45:03.027Z,99.90
2022-10-10T13:47:53.239Z,99.90
2022-10-10T13:50:29.056Z,99.90
2022-10-10T13:53:36.175Z,99.90
2022-10-10T13:56:11.392Z,99.90
2022-10-10T13:58:44.673Z,99.90
2022-10-10T14:01:38.176Z,99.90
2022-10-10T14:04:19.119Z,99.90
2022-10-10T14:06:58.219Z,99.90
2022-10-10T14:09:31.978Z,99.90
2022-10-10T14:12:03.587Z,99.90
2022-10-10T14:14:40.518Z,99.90
2022-10-10T14:17:11.308Z,99.90
2022-10-10T14:19:40.047Z,99.90
2022-10-10T14:22:08.151Z,99.90
2022-10-10T14:24:36.448Z,99.90
2022-10-10T14:27:15.405Z,99.90
2022-10-10T14:29:44.926Z,99.90
2022-10-10T14:32:13.595Z,99.90
2022-10-10T14:34:41.972Z,99.90
2022-10-10T14:37:16.687Z,99.90
2022-10-10T14:39:44.838Z,99.90
2022-10-10T14:42:14.113Z,99.90
2022-10-10T14:44:42.235Z,99.90
2022-10-10T14:47:18.409Z,99.90
2022-10-10T14:49:47.228Z,99.90
2022-10-10T14:52:15.715Z,99.90
2022-10-10T14:54:43.784Z,99.90
2022-10-10T14:57:13.390Z,99.90
2022-10-10T14:59:49.449Z,99.90
2022-10-10T15:02:23.383Z,99.90
2022-10-10T15:04:51.611Z,99.90
2022-10-10T15:07:19.985Z,99.90
2022-10-10T15:10:19.193Z,99.90
2022-10-10T15:12:39.537Z,99.90
2022-10-10T15:15:09.436Z,99.90
2022-10-10T15:17:39.202Z,99.90
2022-10-10T15:20:10.396Z,99.90
2022-10-10T15:22:39.118Z,99.90
2022-10-10T15:25:10.618Z,99.90
2022-10-10T15:27:39.306Z,99.90
2022-10-10T15:30:08.851Z,99.90
2022-10-10T15:32:40.959Z,99.90
2022-10-10T15:35:13.803Z,99.90
2022-10-10T15:37:41.778Z,99.90
2022-10-10T15:40:11.192Z,99.90
2022-10-10T15:42:39.257Z,99.90
2022-10-10T15:45:08.187Z,99.90
2022-10-10T15:47:46.265Z,99.90
2022-10-10T15:50:14.640Z,99.90
2022-10-10T15:52:42.713Z,99.90
2022-10-10T15:55:11.421Z,99.90
2022-10-10T15:57:40.919Z,99.90
2022-10-10T16:00:10.034Z,99.90
2022-10-10T16:02:40.244Z,99.90
2022-10-10T16:05:10.162Z,99.90
2022-10-10T16:07:46.695Z,99.90
2022-10-10T16:10:16.019Z,99.90
2022-10-10T16:12:44.191Z,99.90
2022-10-10T16:15:13.393Z,99.90
2022-10-10T16:17:42.977Z,99.90
2022-10-10T16:20:11.889Z,99.90
2022-10-10T16:22:39.986Z,99.90
2022-10-10T16:25:24.012Z,99.90
2022-10-10T16:27:52.867Z,99.90
2022-10-10T16:30:21.476Z,99.90
2022-10-10T16:32:51.061Z,99.90
2022-10-10T16:35:19.154Z,99.90
2022-10-10T16:37:47.177Z,99.90
2022-10-10T16:40:15.263Z,99.90
2022-10-10T16:42:43.488Z,99.90
2022-10-10T16:45:12.277Z,99.90
2022-10-10T16:47:40.688Z,99.90
2022-10-10T16:50:11.129Z,99.90
2022-10-10T16:52:39.320Z,99.90
2022-10-10T16:55:08.728Z,99.90
2022-10-10T16:57:37.333Z,99.90
2022-10-10T17:00:06.786Z,99.90
2022-10-10T17:02:35.177Z,99.90
2022-10-10T17:05:03.396Z,99.90
2022-10-10T17:07:32.822Z,99.90
2022-10-10T17:10:00.955Z,99.90
2022-10-10T17:12:29.041Z,99.90
2022-10-10T17:14:57.236Z,99.90
2022-10-10T17:17:25.450Z,99.90
2022-10-10T17:19:53.555Z,99.90
2022-10-10T17:22:21.703Z,99.90
2022-10-10T17:24:51.163Z,99.90
2022-10-10T17:27:19.583Z,99.90
2022-10-10T17:29:47.743Z,99.90
2022-10-10T17:32:15.812Z,99.90
2022-10-10T17:34:44.132Z,99.90
2022-10-10T17:37:12.192Z,99.90
2022-10-10T17:39:40.384Z,99.90
2022-10-10T17:42:09.779Z,99.90
2022-10-10T17:44:44.748Z,99.90
2022-10-10T17:47:15.193Z,99.90
2022-10-10T17:49:46.536Z,99.90
2022-10-10T17:52:17.677Z,99.90
2022-10-10T17:54:49.107Z,99.90
2022-10-10T17:57:18.863Z,99.90
2022-10-10T17:59:46.899Z,99.90
2022-10-10T18:02:16.582Z,99.90
2022-10-10T18:04:44.928Z,99.90
2022-10-10T18:07:13.367Z,99.90
2022-10-10T18:09:42.361Z,99.90
2022-10-10T18:12:10.483Z,99.90
2022-10-10T18:14:40.473Z,99.90
2022-10-10T18:17:08.568Z,99.90
2022-10-10T18:19:36.621Z,99.90
2022-10-10T18:22:05.585Z,99.90
2022-10-10T18:24:33.628Z,99.90
2022-10-10T18:27:01.614Z,99.90
2022-10-10T18:29:29.622Z,99.90
2022-10-10T18:31:58.989Z,99.90
2022-10-10T18:34:27.005Z,99.90
2022-10-10T18:36:54.987Z,99.90
2022-10-10T18:39:23.020Z,99.90
2022-10-10T18:41:51.018Z,99.90
2022-10-10T18:44:19.853Z,99.90
2022-10-10T18:46:49.718Z,99.90
2022-10-10T18:49:19.632Z,99.90
2022-10-10T18:51:47.705Z,99.90
2022-10-10T18:54:17.512Z,99.90
2022-10-10T18:56:46.768Z,99.90
2022-10-10T18:59:16.382Z,99.90
2022-10-10T19:01:46.380Z,99.90
2022-10-10T19:04:16.197Z,99.90
2022-10-10T19:06:45.671Z,99.90
2022-10-10T19:09:16.543Z,99.90
2022-10-10T19:11:46.754Z,99.90
2022-10-10T19:14:18.204Z,99.90
2022-10-10T19:16:47.643Z,99.90
2022-10-10T19:19:17.425Z,99.90
2022-10-10T19:21:48.160Z,99.90
2022-10-10T19:24:20.760Z,99.90
2022-10-10T19:26:53.425Z,99.90
2022-10-10T19:29:23.916Z,99.90
2022-10-10T19:31:52.051Z,99.90
2022-10-10T19:34:20.076Z,99.90
2022-10-10T19:36:49.567Z,99.90
2022-10-10T19:39:17.822Z,99.90
2022-10-10T19:41:45.848Z,99.90
2022-10-10T19:44:21.493Z,99.90
2022-10-10T19:46:49.509Z,99.90
2022-10-10T19:49:17.646Z,99.90
2022-10-10T19:51:45.730Z,99.90
2022-10-10T19:54:15.106Z,99.90
2022-10-10T19:56:43.073Z,99.90
2022-10-10T19:59:11.078Z,99.90
2022-10-10T20:01:39.252Z,99.90
2022-10-10T20:04:07.435Z,99.90
2022-10-10T20:06:35.478Z,99.90
2022-10-10T20:09:06.081Z,99.90
2022-10-10T20:11:41.348Z,99.90
2022-10-10T20:14:09.694Z,99.90
2022-10-10T20:16:37.720Z,99.90
2022-10-10T20:19:11.657Z,99.90
2022-10-10T20:21:40.441Z,99.90
2022-10-10T20:24:10.775Z,99.90
2022-10-10T20:26:40.225Z,99.90
2022-10-10T20:29:14.440Z,99.90
2022-10-10T20:31:42.962Z,99.90
2022-10-10T20:34:11.771Z,99.90
2022-10-10T20:36:47.977Z,99.90
2022-10-10T20:39:16.796Z,99.90
2022-10-10T20:41:46.389Z,99.90
2022-10-10T20:44:15.975Z,99.90
2022-10-10T20:46:46.401Z,99.90
2022-10-10T20:49:16.397Z,99.90
2022-10-10T20:51:48.583Z,99.90
2022-10-10T20:54:17.264Z,99.90
2022-10-10T20:56:46.683Z,99.90
2022-10-10T20:59:14.602Z,99.90
2022-10-10T21:01:43.266Z,99.90
2022-10-10T21:04:12.371Z,99.90
2022-10-10T21:06:42.691Z,99.90
2022-10-10T21:09:12.715Z,99.90
2022-10-10T21:11:41.231Z,99.90
2022-10-10T21:14:12.148Z,99.90
2022-10-10T21:16:42.283Z,99.90
2022-10-10T21:19:12.031Z,99.90
2022-10-10T21:21:40.593Z,99.90
2022-10-10T21:24:10.987Z,99.90
2022-10-10T21:26:40.199Z,99.90
2022-10-10T21:29:09.972Z,99.90
2022-10-10T21:31:40.579Z,99.90
2022-10-10T21:34:13.344Z,99.90
2022-10-10T21:36:41.377Z,99.90
2022-10-10T21:39:09.646Z,99.90
2022-10-10T21:41:38.346Z,99.90
2022-10-10T21:44:06.903Z,99.90
2022-10-10T21:46:37.942Z,99.90
2022-10-10T21:49:08.148Z,99.90
2022-10-10T21:51:38.340Z,99.90
2022-10-10T21:54:07.585Z,99.90
2022-10-10T21:56:36.306Z,99.90
2022-10-10T21:59:04.320Z,99.90
2022-10-10T22:01:33.564Z,99.90
2022-10-10T22:04:04.387Z,99.90
2022-10-10T22:06:32.871Z,99.90
2022-10-10T22:09:01.889Z,99.90
2022-10-10T22:11:32.088Z,99.90
2022-10-10T22:14:02.379Z,99.90
2022-10-10T22:16:31.005Z,99.90
2022-10-10T22:18:59.567Z,99.90
2022-10-10T22:21:31.872Z,99.90
2022-10-10T22:24:01.876Z,99.90
2022-10-10T22:26:30.591Z,99.90
2022-10-10T22:28:59.125Z,99.90
2022-10-10T22:31:27.749Z,99.90
2022-10-10T22:33:55.748Z,99.90
2022-10-10T22:36:23.886Z,99.90
2022-10-10T22:38:53.358Z,99.90
2022-10-10T22:41:21.350Z,99.90
2022-10-10T22:43:49.724Z,99.90
2022-10-10T22:46:17.872Z,99.90
2022-10-10T22:48:45.962Z,99.90
2022-10-10T22:51:16.255Z,99.90
2022-10-10T22:53:45.280Z,99.90
2022-10-10T22:56:16.305Z,99.90
2022-10-10T22:58:44.927Z,99.90
2022-10-10T23:01:16.105Z,99.90
2022-10-10T23:03:44.833Z,99.90
2022-10-10T23:06:13.358Z,99.90
2022-10-10T23:08:41.532Z,99.90
2022-10-10T23:11:09.545Z,99.90
2022-10-10T23:13:38.931Z,99.90
2022-10-10T23:16:07.832Z,99.90
2022-10-10T23:18:36.336Z,99.90
2022-10-10T23:21:04.683Z,99.90
2022-10-10T23:23:32.626Z,99.90
2022-10-10T23:26:00.685Z,99.90
2022-10-10T23:28:28.862Z,99.90
2022-10-10T23:31:02.693Z,99.90
2022-10-10T23:33:35.887Z,99.90
2022-10-10T23:36:08.186Z,99.90
2022-10-10T23:38:36.579Z,99.90
2022-10-10T23:41:04.867Z,99.90
2022-10-10T23:43:32.906Z,99.90
2022-10-10T23:46:02.606Z,99.90
2022-10-10T23:48:30.962Z,99.90
2022-10-10T23:50:59.261Z,99.90
2022-10-10T23:53:27.292Z,99.90
2022-10-10T23:55:55.241Z,99.90
2022-10-10T23:58:23.654Z,99.90
